sensor_id;sensor_type;location;lat;lon;timestamp;temperature;humidity
21861;DHT22;11095;48.066;8.540;2023-11-19T00:01:31;5.50;99.90
21861;DHT22;11095;48.066;8.540;2023-11-19T00:03:58;5.50;99.90
21861;DHT22;11095;48.066;8.540;2023-11-19T00:06:23;5.50;99.90
21861;DHT22;11095;48.066;8.540;2023-11-19T00:08:50;5.50;99.90
21861;DHT22;11095;48.066;8.540;2023-11-19T00:11:16;5.50;99.90
21861;DHT22;11095;48.066;8.540;2023-11-19T00:13:42;5.50;99.90
21861;DHT22;11095;48.066;8.540;2023-11-19T00:16:08;5.50;99.90
21861;DHT22;11095;48.066;8.540;2023-11-19T00:18:35;5.50;99.90
21861;DHT22;11095;48.066;8.540;2023-11-19T00:21:01;5.50;99.90
21861;DHT22;11095;48.066;8.540;2023-11-19T00:23:27;5.50;99.90
21861;DHT22;11095;48.066;8.540;2023-11-19T00:25:53;5.50;99.90
21861;DHT22;11095;48.066;8.540;2023-11-19T00:28:19;5.60;99.90
21861;DHT22;11095;48.066;8.540;2023-11-19T00:30:44;5.60;99.90
21861;DHT22;11095;48.066;8.540;2023-11-19T00:33:10;5.60;99.90
21861;DHT22;11095;48.066;8.540;2023-11-19T00:35:36;5.70;99.90
21861;DHT22;11095;48.066;8.540;2023-11-19T00:38:01;5.70;99.90
21861;DHT22;11095;48.066;8.540;2023-11-19T00:40:28;5.70;99.90
21861;DHT22;11095;48.066;8.540;2023-11-19T00:42:54;5.70;99.90
21861;DHT22;11095;48.066;8.540;2023-11-19T00:45:19;5.70;99.90
21861;DHT22;11095;48.066;8.540;2023-11-19T00:47:45;5.70;99.90
21861;DHT22;11095;48.066;8.540;2023-11-19T00:50:11;5.70;99.90
21861;DHT22;11095;48.066;8.540;2023-11-19T00:52:37;5.70;99.90
21861;DHT22;11095;48.066;8.540;2023-11-19T00:55:03;5.80;99.90
21861;DHT22;11095;48.066;8.540;2023-11-19T00:57:32;5.80;99.90
21861;DHT22;11095;48.066;8.540;2023-11-19T00:59:59;5.80;99.90
21861;DHT22;11095;48.066;8.540;2023-11-19T01:02:25;5.80;99.90
21861;DHT22;11095;48.066;8.540;2023-11-19T01:04:50;5.80;99.90
21861;DHT22;11095;48.066;8.540;2023-11-19T01:07:16;5.80;99.90
21861;DHT22;11095;48.066;8.540;2023-11-19T01:09:42;5.90;99.90
21861;DHT22;11095;48.066;8.540;2023-11-19T01:12:08;5.90;99.90
21861;DHT22;11095;48.066;8.540;2023-11-19T01:14:34;5.90;99.90
21861;DHT22;11095;48.066;8.540;2023-11-19T01:17:01;5.90;99.90
21861;DHT22;11095;48.066;8.540;2023-11-19T01:19:26;5.90;99.90
21861;DHT22;11095;48.066;8.540;2023-11-19T01:21:54;5.90;99.90
21861;DHT22;11095;48.066;8.540;2023-11-19T01:24:20;5.90;99.90
21861;DHT22;11095;48.066;8.540;2023-11-19T01:26:46;5.90;99.90
21861;DHT22;11095;48.066;8.540;2023-11-19T01:29:14;5.90;99.90
21861;DHT22;11095;48.066;8.540;2023-11-19T01:31:41;6.00;99.90
21861;DHT22;11095;48.066;8.540;2023-11-19T01:34:06;6.00;99.90
21861;DHT22;11095;48.066;8.540;2023-11-19T01:36:32;6.00;99.90
21861;DHT22;11095;48.066;8.540;2023-11-19T01:38:57;6.00;99.90
21861;DHT22;11095;48.066;8.540;2023-11-19T01:41:23;6.00;99.90
21861;DHT22;11095;48.066;8.540;2023-11-19T01:43:50;6.00;99.90
21861;DHT22;11095;48.066;8.540;2023-11-19T01:46:16;6.10;99.90
21861;DHT22;11095;48.066;8.540;2023-11-19T01:48:45;6.10;99.90
21861;DHT22;11095;48.066;8.540;2023-11-19T01:51:14;6.10;99.90
21861;DHT22;11095;48.066;8.540;2023-11-19T01:53:42;6.20;99.90
21861;DHT22;11095;48.066;8.540;2023-11-19T01:56:09;6.20;99.90
21861;DHT22;11095;48.066;8.540;2023-11-19T01:58:37;6.20;99.90
21861;DHT22;11095;48.066;8.540;2023-11-19T02:01:05;6.30;99.90
21861;DHT22;11095;48.066;8.540;2023-11-19T02:03:34;6.30;99.90
21861;DHT22;11095;48.066;8.540;2023-11-19T02:06:00;6.30;99.90
21861;DHT22;11095;48.066;8.540;2023-11-19T02:08:26;6.30;99.90
21861;DHT22;11095;48.066;8.540;2023-11-19T02:10:52;6.40;99.90
21861;DHT22;11095;48.066;8.540;2023-11-19T02:13:18;6.40;99.90
21861;DHT22;11095;48.066;8.540;2023-11-19T02:15:44;6.50;99.90
21861;DHT22;11095;48.066;8.540;2023-11-19T02:18:24;6.50;99.90
21861;DHT22;11095;48.066;8.540;2023-11-19T02:20:55;6.60;99.90
21861;DHT22;11095;48.066;8.540;2023-11-19T02:23:21;6.60;99.90
21861;DHT22;11095;48.066;8.540;2023-11-19T02:26:08;6.70;99.90
21861;DHT22;11095;48.066;8.540;2023-11-19T02:28:36;6.80;99.90
21861;DHT22;11095;48.066;8.540;2023-11-19T02:31:02;6.80;99.90
21861;DHT22;11095;48.066;8.540;2023-11-19T02:33:30;6.80;99.90
21861;DHT22;11095;48.066;8.540;2023-11-19T02:35:56;6.90;99.90
21861;DHT22;11095;48.066;8.540;2023-11-19T02:38:21;6.90;99.90
21861;DHT22;11095;48.066;8.540;2023-11-19T02:40:48;6.90;99.90
21861;DHT22;11095;48.066;8.540;2023-11-19T02:43:14;7.00;99.90
21861;DHT22;11095;48.066;8.540;2023-11-19T02:45:40;7.00;99.90
21861;DHT22;11095;48.066;8.540;2023-11-19T02:48:06;7.10;99.90
21861;DHT22;11095;48.066;8.540;2023-11-19T02:50:31;7.10;99.90
21861;DHT22;11095;48.066;8.540;2023-11-19T02:52:57;7.10;99.90
21861;DHT22;11095;48.066;8.540;2023-11-19T02:55:23;7.20;99.90
21861;DHT22;11095;48.066;8.540;2023-11-19T02:57:50;7.30;99.90
21861;DHT22;11095;48.066;8.540;2023-11-19T03:00:17;7.30;99.90
21861;DHT22;11095;48.066;8.540;2023-11-19T03:02:43;7.40;99.90
21861;DHT22;11095;48.066;8.540;2023-11-19T03:05:13;7.40;99.90
21861;DHT22;11095;48.066;8.540;2023-11-19T03:07:41;7.40;99.90
21861;DHT22;11095;48.066;8.540;2023-11-19T03:10:08;7.50;99.90
21861;DHT22;11095;48.066;8.540;2023-11-19T03:12:34;7.50;99.90
21861;DHT22;11095;48.066;8.540;2023-11-19T03:15:00;7.50;99.90
21861;DHT22;11095;48.066;8.540;2023-11-19T03:17:26;7.50;99.90
21861;DHT22;11095;48.066;8.540;2023-11-19T03:19:52;7.60;99.90
21861;DHT22;11095;48.066;8.540;2023-11-19T03:22:17;7.60;99.90
21861;DHT22;11095;48.066;8.540;2023-11-19T03:24:43;7.60;99.90
21861;DHT22;11095;48.066;8.540;2023-11-19T03:27:08;7.70;99.90
21861;DHT22;11095;48.066;8.540;2023-11-19T03:29:34;7.80;99.90
21861;DHT22;11095;48.066;8.540;2023-11-19T03:31:59;7.80;99.90
21861;DHT22;11095;48.066;8.540;2023-11-19T03:34:25;7.90;99.90
21861;DHT22;11095;48.066;8.540;2023-11-19T03:36:51;8.00;99.90
21861;DHT22;11095;48.066;8.540;2023-11-19T03:39:17;8.10;99.90
21861;DHT22;11095;48.066;8.540;2023-11-19T03:41:45;8.10;99.90
21861;DHT22;11095;48.066;8.540;2023-11-19T03:44:12;8.20;99.90
21861;DHT22;11095;48.066;8.540;2023-11-19T03:46:38;8.20;99.90
21861;DHT22;11095;48.066;8.540;2023-11-19T03:49:03;8.30;99.90
21861;DHT22;11095;48.066;8.540;2023-11-19T03:51:29;8.30;99.90
21861;DHT22;11095;48.066;8.540;2023-11-19T03:53:55;8.30;99.90
21861;DHT22;11095;48.066;8.540;2023-11-19T03:56:21;8.30;99.90
21861;DHT22;11095;48.066;8.540;2023-11-19T03:58:46;8.30;99.90
21861;DHT22;11095;48.066;8.540;2023-11-19T04:01:12;8.30;99.90
21861;DHT22;11095;48.066;8.540;2023-11-19T04:03:38;8.30;99.90
21861;DHT22;11095;48.066;8.540;2023-11-19T04:06:04;8.40;99.90
21861;DHT22;11095;48.066;8.540;2023-11-19T04:08:30;8.30;99.90
21861;DHT22;11095;48.066;8.540;2023-11-19T04:10:56;8.30;99.90
21861;DHT22;11095;48.066;8.540;2023-11-19T04:13:21;8.30;99.90
21861;DHT22;11095;48.066;8.540;2023-11-19T04:15:49;8.30;99.90
21861;DHT22;11095;48.066;8.540;2023-11-19T04:18:14;8.30;99.90
21861;DHT22;11095;48.066;8.540;2023-11-19T04:20:40;8.30;99.90
21861;DHT22;11095;48.066;8.540;2023-11-19T04:23:07;8.30;99.90
21861;DHT22;11095;48.066;8.540;2023-11-19T04:25:33;8.20;99.90
21861;DHT22;11095;48.066;8.540;2023-11-19T04:28:00;8.20;99.90
21861;DHT22;11095;48.066;8.540;2023-11-19T04:30:25;8.20;99.90
21861;DHT22;11095;48.066;8.540;2023-11-19T04:32:51;8.20;99.90
21861;DHT22;11095;48.066;8.540;2023-11-19T04:35:17;8.20;99.90
21861;DHT22;11095;48.066;8.540;2023-11-19T04:37:42;8.20;99.90
21861;DHT22;11095;48.066;8.540;2023-11-19T04:40:08;8.20;99.90
21861;DHT22;11095;48.066;8.540;2023-11-19T04:42:35;8.30;99.90
21861;DHT22;11095;48.066;8.540;2023-11-19T04:45:00;8.30;99.90
21861;DHT22;11095;48.066;8.540;2023-11-19T04:47:26;8.30;99.90
21861;DHT22;11095;48.066;8.540;2023-11-19T04:49:51;8.30;99.90
21861;DHT22;11095;48.066;8.540;2023-11-19T04:52:17;8.30;99.90
21861;DHT22;11095;48.066;8.540;2023-11-19T04:54:43;8.40;99.90
21861;DHT22;11095;48.066;8.540;2023-11-19T04:57:09;8.40;99.90
21861;DHT22;11095;48.066;8.540;2023-11-19T04:59:36;8.40;99.90
21861;DHT22;11095;48.066;8.540;2023-11-19T05:02:02;8.50;99.90
21861;DHT22;11095;48.066;8.540;2023-11-19T05:04:29;8.50;99.90
21861;DHT22;11095;48.066;8.540;2023-11-19T05:06:55;8.50;99.90
21861;DHT22;11095;48.066;8.540;2023-11-19T05:09:21;8.60;99.90
21861;DHT22;11095;48.066;8.540;2023-11-19T05:11:46;8.50;99.90
21861;DHT22;11095;48.066;8.540;2023-11-19T05:14:12;8.60;99.90
21861;DHT22;11095;48.066;8.540;2023-11-19T05:16:40;8.60;99.90
21861;DHT22;11095;48.066;8.540;2023-11-19T05:19:06;8.50;99.90
21861;DHT22;11095;48.066;8.540;2023-11-19T05:21:32;8.50;99.90
21861;DHT22;11095;48.066;8.540;2023-11-19T05:23:58;8.50;99.90
21861;DHT22;11095;48.066;8.540;2023-11-19T05:26:24;8.50;99.90
21861;DHT22;11095;48.066;8.540;2023-11-19T05:28:50;8.40;99.90
21861;DHT22;11095;48.066;8.540;2023-11-19T05:31:17;8.40;99.90
21861;DHT22;11095;48.066;8.540;2023-11-19T05:33:43;8.40;99.90
21861;DHT22;11095;48.066;8.540;2023-11-19T05:36:10;8.30;99.90
21861;DHT22;11095;48.066;8.540;2023-11-19T05:38:36;8.30;99.90
21861;DHT22;11095;48.066;8.540;2023-11-19T05:41:02;8.30;99.90
21861;DHT22;11095;48.066;8.540;2023-11-19T05:43:28;8.30;99.90
21861;DHT22;11095;48.066;8.540;2023-11-19T05:45:53;8.30;99.90
21861;DHT22;11095;48.066;8.540;2023-11-19T05:48:19;8.30;99.90
21861;DHT22;11095;48.066;8.540;2023-11-19T05:50:44;8.30;99.90
21861;DHT22;11095;48.066;8.540;2023-11-19T05:53:10;8.30;99.90
21861;DHT22;11095;48.066;8.540;2023-11-19T05:55:39;8.30;99.90
21861;DHT22;11095;48.066;8.540;2023-11-19T05:58:26;8.30;99.90
21861;DHT22;11095;48.066;8.540;2023-11-19T06:00:56;8.40;99.90
21861;DHT22;11095;48.066;8.540;2023-11-19T06:03:56;8.40;99.90
21861;DHT22;11095;48.066;8.540;2023-11-19T06:06:22;8.40;99.90
21861;DHT22;11095;48.066;8.540;2023-11-19T06:08:47;8.50;99.90
21861;DHT22;11095;48.066;8.540;2023-11-19T06:11:13;8.50;99.90
21861;DHT22;11095;48.066;8.540;2023-11-19T06:13:43;8.50;99.90
21861;DHT22;11095;48.066;8.540;2023-11-19T06:16:09;8.60;99.90
21861;DHT22;11095;48.066;8.540;2023-11-19T06:18:36;8.60;99.90
21861;DHT22;11095;48.066;8.540;2023-11-19T06:21:02;8.60;99.90
21861;DHT22;11095;48.066;8.540;2023-11-19T06:23:27;8.60;99.90
21861;DHT22;11095;48.066;8.540;2023-11-19T06:25:53;8.70;99.90
21861;DHT22;11095;48.066;8.540;2023-11-19T06:28:18;8.70;99.90
21861;DHT22;11095;48.066;8.540;2023-11-19T06:30:44;8.70;99.90
21861;DHT22;11095;48.066;8.540;2023-11-19T06:33:13;8.70;99.90
21861;DHT22;11095;48.066;8.540;2023-11-19T06:35:38;8.70;99.90
21861;DHT22;11095;48.066;8.540;2023-11-19T06:38:04;8.80;99.90
21861;DHT22;11095;48.066;8.540;2023-11-19T06:40:30;8.80;99.90
21861;DHT22;11095;48.066;8.540;2023-11-19T06:42:56;8.80;99.90
21861;DHT22;11095;48.066;8.540;2023-11-19T06:45:22;8.80;99.90
21861;DHT22;11095;48.066;8.540;2023-11-19T06:47:48;8.80;99.90
21861;DHT22;11095;48.066;8.540;2023-11-19T06:50:13;8.80;99.90
21861;DHT22;11095;48.066;8.540;2023-11-19T06:52:40;8.80;99.90
21861;DHT22;11095;48.066;8.540;2023-11-19T06:55:06;8.80;99.90
21861;DHT22;11095;48.066;8.540;2023-11-19T06:57:32;8.80;99.90
21861;DHT22;11095;48.066;8.540;2023-11-19T06:59:58;8.80;99.90
21861;DHT22;11095;48.066;8.540;2023-11-19T07:02:24;8.80;99.90
21861;DHT22;11095;48.066;8.540;2023-11-19T07:04:50;8.90;99.90
21861;DHT22;11095;48.066;8.540;2023-11-19T07:07:16;8.90;99.90
21861;DHT22;11095;48.066;8.540;2023-11-19T07:09:42;8.90;99.90
21861;DHT22;11095;48.066;8.540;2023-11-19T07:12:08;8.90;99.90
21861;DHT22;11095;48.066;8.540;2023-11-19T07:14:33;8.90;99.90
21861;DHT22;11095;48.066;8.540;2023-11-19T07:16:59;8.90;99.90
21861;DHT22;11095;48.066;8.540;2023-11-19T07:19:25;9.00;99.90
21861;DHT22;11095;48.066;8.540;2023-11-19T07:21:51;9.00;99.90
21861;DHT22;11095;48.066;8.540;2023-11-19T07:24:20;9.10;99.90
21861;DHT22;11095;48.066;8.540;2023-11-19T07:26:46;9.20;99.90
21861;DHT22;11095;48.066;8.540;2023-11-19T07:29:15;9.20;99.90
21861;DHT22;11095;48.066;8.540;2023-11-19T07:31:42;9.20;99.90
21861;DHT22;11095;48.066;8.540;2023-11-19T07:34:09;9.20;99.90
21861;DHT22;11095;48.066;8.540;2023-11-19T07:36:36;9.30;99.90
21861;DHT22;11095;48.066;8.540;2023-11-19T07:39:01;9.30;99.90
21861;DHT22;11095;48.066;8.540;2023-11-19T07:41:27;9.30;99.90
21861;DHT22;11095;48.066;8.540;2023-11-19T07:43:54;9.30;99.90
21861;DHT22;11095;48.066;8.540;2023-11-19T07:46:20;9.40;99.90
21861;DHT22;11095;48.066;8.540;2023-11-19T07:48:45;9.40;99.90
21861;DHT22;11095;48.066;8.540;2023-11-19T07:51:13;9.50;99.90
21861;DHT22;11095;48.066;8.540;2023-11-19T07:53:39;9.60;99.90
21861;DHT22;11095;48.066;8.540;2023-11-19T07:56:05;9.70;99.90
21861;DHT22;11095;48.066;8.540;2023-11-19T07:58:31;9.70;99.90
21861;DHT22;11095;48.066;8.540;2023-11-19T08:00:56;9.80;99.90
21861;DHT22;11095;48.066;8.540;2023-11-19T08:03:22;9.80;99.90
21861;DHT22;11095;48.066;8.540;2023-11-19T08:05:48;9.80;99.90
21861;DHT22;11095;48.066;8.540;2023-11-19T08:08:13;9.90;99.90
21861;DHT22;11095;48.066;8.540;2023-11-19T08:10:40;9.90;99.90
21861;DHT22;11095;48.066;8.540;2023-11-19T08:13:05;9.90;99.90
21861;DHT22;11095;48.066;8.540;2023-11-19T08:15:31;9.90;99.90
21861;DHT22;11095;48.066;8.540;2023-11-19T08:17:57;9.90;99.90
21861;DHT22;11095;48.066;8.540;2023-11-19T08:20:23;10.00;99.90
21861;DHT22;11095;48.066;8.540;2023-11-19T08:22:49;10.00;99.90
21861;DHT22;11095;48.066;8.540;2023-11-19T08:25:14;10.00;99.90
21861;DHT22;11095;48.066;8.540;2023-11-19T08:27:40;10.00;99.90
21861;DHT22;11095;48.066;8.540;2023-11-19T08:30:06;10.10;99.90
21861;DHT22;11095;48.066;8.540;2023-11-19T08:32:32;10.10;99.90
21861;DHT22;11095;48.066;8.540;2023-11-19T08:34:57;10.10;99.90
21861;DHT22;11095;48.066;8.540;2023-11-19T08:37:23;10.20;99.90
21861;DHT22;11095;48.066;8.540;2023-11-19T08:39:49;10.20;99.90
21861;DHT22;11095;48.066;8.540;2023-11-19T08:42:16;10.30;99.90
21861;DHT22;11095;48.066;8.540;2023-11-19T08:44:42;10.30;99.90
21861;DHT22;11095;48.066;8.540;2023-11-19T08:47:10;10.30;99.90
21861;DHT22;11095;48.066;8.540;2023-11-19T08:49:36;10.30;99.90
21861;DHT22;11095;48.066;8.540;2023-11-19T08:52:02;10.40;99.90
21861;DHT22;11095;48.066;8.540;2023-11-19T08:54:27;10.40;99.90
21861;DHT22;11095;48.066;8.540;2023-11-19T08:56:53;10.50;99.90
21861;DHT22;11095;48.066;8.540;2023-11-19T08:59:19;10.50;99.90
21861;DHT22;11095;48.066;8.540;2023-11-19T09:01:44;10.60;99.90
21861;DHT22;11095;48.066;8.540;2023-11-19T09:04:10;10.60;99.90
21861;DHT22;11095;48.066;8.540;2023-11-19T09:06:36;10.70;99.90
21861;DHT22;11095;48.066;8.540;2023-11-19T09:09:02;10.90;99.90
21861;DHT22;11095;48.066;8.540;2023-11-19T09:11:31;11.20;99.90
21861;DHT22;11095;48.066;8.540;2023-11-19T09:13:57;11.30;99.90
21861;DHT22;11095;48.066;8.540;2023-11-19T09:16:22;11.50;99.90
21861;DHT22;11095;48.066;8.540;2023-11-19T09:18:48;11.60;99.90
21861;DHT22;11095;48.066;8.540;2023-11-19T09:21:13;11.80;99.90
21861;DHT22;11095;48.066;8.540;2023-11-19T09:23:39;11.90;99.90
21861;DHT22;11095;48.066;8.540;2023-11-19T09:26:06;12.00;99.90
21861;DHT22;11095;48.066;8.540;2023-11-19T09:28:33;11.90;99.90
21861;DHT22;11095;48.066;8.540;2023-11-19T09:30:58;11.90;99.90
21861;DHT22;11095;48.066;8.540;2023-11-19T09:33:24;11.90;99.90
21861;DHT22;11095;48.066;8.540;2023-11-19T09:35:50;11.90;99.90
21861;DHT22;11095;48.066;8.540;2023-11-19T09:38:16;12.00;99.90
21861;DHT22;11095;48.066;8.540;2023-11-19T09:40:42;12.00;99.90
21861;DHT22;11095;48.066;8.540;2023-11-19T09:43:08;12.10;99.90
21861;DHT22;11095;48.066;8.540;2023-11-19T09:45:49;12.30;99.90
21861;DHT22;11095;48.066;8.540;2023-11-19T09:48:18;12.40;99.90
21861;DHT22;11095;48.066;8.540;2023-11-19T09:50:47;12.50;99.90
21861;DHT22;11095;48.066;8.540;2023-11-19T09:53:16;13.00;99.90
21861;DHT22;11095;48.066;8.540;2023-11-19T09:55:42;13.30;99.90
21861;DHT22;11095;48.066;8.540;2023-11-19T09:58:08;13.40;99.90
21861;DHT22;11095;48.066;8.540;2023-11-19T10:00:35;13.40;99.90
21861;DHT22;11095;48.066;8.540;2023-11-19T10:03:00;13.40;99.90
21861;DHT22;11095;48.066;8.540;2023-11-19T10:05:26;13.30;99.90
21861;DHT22;11095;48.066;8.540;2023-11-19T10:07:52;13.10;99.90
21861;DHT22;11095;48.066;8.540;2023-11-19T10:10:18;13.00;99.90
21861;DHT22;11095;48.066;8.540;2023-11-19T10:12:50;12.90;99.90
21861;DHT22;11095;48.066;8.540;2023-11-19T10:15:25;12.80;99.90
21861;DHT22;11095;48.066;8.540;2023-11-19T10:17:55;12.70;99.90
21861;DHT22;11095;48.066;8.540;2023-11-19T10:20:20;12.60;99.90
21861;DHT22;11095;48.066;8.540;2023-11-19T10:22:46;12.60;99.90
21861;DHT22;11095;48.066;8.540;2023-11-19T10:25:38;12.60;99.90
21861;DHT22;11095;48.066;8.540;2023-11-19T10:28:03;12.70;99.90
21861;DHT22;11095;48.066;8.540;2023-11-19T10:30:30;12.70;99.90
21861;DHT22;11095;48.066;8.540;2023-11-19T10:33:10;12.60;99.90
21861;DHT22;11095;48.066;8.540;2023-11-19T10:38:17;12.70;99.90
21861;DHT22;11095;48.066;8.540;2023-11-19T10:40:43;12.80;99.90
21861;DHT22;11095;48.066;8.540;2023-11-19T10:43:09;12.80;99.90
21861;DHT22;11095;48.066;8.540;2023-11-19T10:45:38;12.80;99.90
21861;DHT22;11095;48.066;8.540;2023-11-19T10:48:05;12.80;99.90
21861;DHT22;11095;48.066;8.540;2023-11-19T10:50:37;12.90;99.90
21861;DHT22;11095;48.066;8.540;2023-11-19T10:53:04;12.90;99.90
21861;DHT22;11095;48.066;8.540;2023-11-19T10:55:32;12.90;99.90
21861;DHT22;11095;48.066;8.540;2023-11-19T10:58:00;12.80;99.90
21861;DHT22;11095;48.066;8.540;2023-11-19T11:00:28;12.70;99.90
21861;DHT22;11095;48.066;8.540;2023-11-19T11:03:00;12.70;99.90
21861;DHT22;11095;48.066;8.540;2023-11-19T11:05:26;12.70;99.90
21861;DHT22;11095;48.066;8.540;2023-11-19T11:07:55;12.70;99.90
21861;DHT22;11095;48.066;8.540;2023-11-19T11:10:24;12.80;99.90
21861;DHT22;11095;48.066;8.540;2023-11-19T11:12:52;12.90;99.90
21861;DHT22;11095;48.066;8.540;2023-11-19T11:15:26;12.90;99.90
21861;DHT22;11095;48.066;8.540;2023-11-19T11:17:59;12.90;99.90
21861;DHT22;11095;48.066;8.540;2023-11-19T11:20:25;13.00;99.90
21861;DHT22;11095;48.066;8.540;2023-11-19T11:39:34;13.50;99.90
21861;DHT22;11095;48.066;8.540;2023-11-19T11:50:18;13.70;99.90
21861;DHT22;11095;48.066;8.540;2023-11-19T11:58:25;13.80;99.90
21861;DHT22;11095;48.066;8.540;2023-11-19T12:00:51;13.80;99.90
21861;DHT22;11095;48.066;8.540;2023-11-19T12:03:21;13.70;99.90
21861;DHT22;11095;48.066;8.540;2023-11-19T12:05:49;13.60;99.90
21861;DHT22;11095;48.066;8.540;2023-11-19T12:08:19;13.50;99.90
21861;DHT22;11095;48.066;8.540;2023-11-19T12:10:53;13.40;99.90
21861;DHT22;11095;48.066;8.540;2023-11-19T12:13:20;13.40;99.90
21861;DHT22;11095;48.066;8.540;2023-11-19T12:18:32;13.40;99.90
21861;DHT22;11095;48.066;8.540;2023-11-19T12:20:58;13.50;99.90
21861;DHT22;11095;48.066;8.540;2023-11-19T12:23:29;13.50;99.90
21861;DHT22;11095;48.066;8.540;2023-11-19T12:25:56;13.60;99.90
21861;DHT22;11095;48.066;8.540;2023-11-19T12:28:22;13.60;99.90
21861;DHT22;11095;48.066;8.540;2023-11-19T12:30:50;13.70;99.90
21861;DHT22;11095;48.066;8.540;2023-11-19T12:33:16;13.70;99.90
21861;DHT22;11095;48.066;8.540;2023-11-19T12:35:43;13.80;99.90
21861;DHT22;11095;48.066;8.540;2023-11-19T12:38:23;13.90;99.90
21861;DHT22;11095;48.066;8.540;2023-11-19T12:41:09;13.80;99.90
21861;DHT22;11095;48.066;8.540;2023-11-19T12:43:37;13.80;99.90
21861;DHT22;11095;48.066;8.540;2023-11-19T12:46:22;13.80;99.90
21861;DHT22;11095;48.066;8.540;2023-11-19T12:48:49;13.80;99.90
21861;DHT22;11095;48.066;8.540;2023-11-19T12:51:14;13.80;99.90
21861;DHT22;11095;48.066;8.540;2023-11-19T12:53:51;13.80;99.90
21861;DHT22;11095;48.066;8.540;2023-11-19T12:56:19;13.80;99.90
21861;DHT22;11095;48.066;8.540;2023-11-19T12:58:45;13.70;99.90
21861;DHT22;11095;48.066;8.540;2023-11-19T13:01:16;13.60;99.90
21861;DHT22;11095;48.066;8.540;2023-11-19T13:03:42;13.50;99.90
21861;DHT22;11095;48.066;8.540;2023-11-19T13:06:09;13.60;99.90
21861;DHT22;11095;48.066;8.540;2023-11-19T13:08:44;13.50;99.90
21861;DHT22;11095;48.066;8.540;2023-11-19T13:11:14;13.40;99.90
21861;DHT22;11095;48.066;8.540;2023-11-19T13:13:55;13.40;99.90
21861;DHT22;11095;48.066;8.540;2023-11-19T13:16:21;13.30;99.90
21861;DHT22;11095;48.066;8.540;2023-11-19T13:18:47;13.30;99.90
21861;DHT22;11095;48.066;8.540;2023-11-19T13:21:12;13.30;99.90
21861;DHT22;11095;48.066;8.540;2023-11-19T13:23:38;13.20;99.90
21861;DHT22;11095;48.066;8.540;2023-11-19T13:26:04;13.20;99.90
21861;DHT22;11095;48.066;8.540;2023-11-19T13:28:30;13.20;99.90
21861;DHT22;11095;48.066;8.540;2023-11-19T13:30:56;13.20;99.90
21861;DHT22;11095;48.066;8.540;2023-11-19T13:33:21;13.20;99.90
21861;DHT22;11095;48.066;8.540;2023-11-19T13:35:47;13.30;99.90
21861;DHT22;11095;48.066;8.540;2023-11-19T13:38:12;13.30;99.90
21861;DHT22;11095;48.066;8.540;2023-11-19T13:40:38;13.30;99.90
21861;DHT22;11095;48.066;8.540;2023-11-19T13:43:04;13.20;99.90
21861;DHT22;11095;48.066;8.540;2023-11-19T13:45:30;13.20;99.90
21861;DHT22;11095;48.066;8.540;2023-11-19T13:47:56;13.20;99.90
21861;DHT22;11095;48.066;8.540;2023-11-19T13:50:21;13.10;99.90
21861;DHT22;11095;48.066;8.540;2023-11-19T13:52:48;13.10;99.90
21861;DHT22;11095;48.066;8.540;2023-11-19T13:55:14;13.10;99.90
21861;DHT22;11095;48.066;8.540;2023-11-19T13:57:41;13.00;99.90
21861;DHT22;11095;48.066;8.540;2023-11-19T14:00:09;13.00;99.90
21861;DHT22;11095;48.066;8.540;2023-11-19T14:02:48;13.00;99.90
21861;DHT22;11095;48.066;8.540;2023-11-19T14:05:14;13.10;99.90
21861;DHT22;11095;48.066;8.540;2023-11-19T14:07:43;13.10;99.90
21861;DHT22;11095;48.066;8.540;2023-11-19T14:10:09;13.10;99.90
21861;DHT22;11095;48.066;8.540;2023-11-19T14:12:39;13.00;99.90
21861;DHT22;11095;48.066;8.540;2023-11-19T14:15:06;13.00;99.90
21861;DHT22;11095;48.066;8.540;2023-11-19T14:17:32;12.90;99.90
21861;DHT22;11095;48.066;8.540;2023-11-19T14:19:59;12.80;99.90
21861;DHT22;11095;48.066;8.540;2023-11-19T14:22:24;12.80;99.90
21861;DHT22;11095;48.066;8.540;2023-11-19T14:24:50;12.80;99.90
21861;DHT22;11095;48.066;8.540;2023-11-19T14:27:16;12.70;99.90
21861;DHT22;11095;48.066;8.540;2023-11-19T14:29:45;12.70;99.90
21861;DHT22;11095;48.066;8.540;2023-11-19T14:32:10;12.70;99.90
21861;DHT22;11095;48.066;8.540;2023-11-19T14:34:36;12.70;99.90
21861;DHT22;11095;48.066;8.540;2023-11-19T14:37:02;12.60;99.90
21861;DHT22;11095;48.066;8.540;2023-11-19T14:39:28;12.60;99.90
21861;DHT22;11095;48.066;8.540;2023-11-19T14:41:56;12.50;99.90
21861;DHT22;11095;48.066;8.540;2023-11-19T14:44:26;12.40;99.90
21861;DHT22;11095;48.066;8.540;2023-11-19T14:46:52;12.30;99.90
21861;DHT22;11095;48.066;8.540;2023-11-19T14:49:17;12.30;99.90
21861;DHT22;11095;48.066;8.540;2023-11-19T14:51:43;12.20;99.90
21861;DHT22;11095;48.066;8.540;2023-11-19T14:54:08;12.10;99.90
21861;DHT22;11095;48.066;8.540;2023-11-19T14:56:34;12.00;99.90
21861;DHT22;11095;48.066;8.540;2023-11-19T14:58:59;11.90;99.90
21861;DHT22;11095;48.066;8.540;2023-11-19T15:01:25;11.80;99.90
21861;DHT22;11095;48.066;8.540;2023-11-19T15:03:51;11.80;99.90
21861;DHT22;11095;48.066;8.540;2023-11-19T15:06:16;11.70;99.90
21861;DHT22;11095;48.066;8.540;2023-11-19T15:08:42;11.60;99.90
21861;DHT22;11095;48.066;8.540;2023-11-19T15:11:08;11.50;99.90
21861;DHT22;11095;48.066;8.540;2023-11-19T15:13:35;11.40;99.90
21861;DHT22;11095;48.066;8.540;2023-11-19T15:16:03;11.30;99.90
21861;DHT22;11095;48.066;8.540;2023-11-19T15:18:31;11.30;99.90
21861;DHT22;11095;48.066;8.540;2023-11-19T15:20:56;11.10;99.90
21861;DHT22;11095;48.066;8.540;2023-11-19T15:23:22;11.10;99.90
21861;DHT22;11095;48.066;8.540;2023-11-19T15:25:48;11.00;99.90
21861;DHT22;11095;48.066;8.540;2023-11-19T15:28:14;10.80;99.90
21861;DHT22;11095;48.066;8.540;2023-11-19T15:30:40;10.80;99.90
21861;DHT22;11095;48.066;8.540;2023-11-19T15:33:05;10.70;99.90
21861;DHT22;11095;48.066;8.540;2023-11-19T15:35:31;10.60;99.90
21861;DHT22;11095;48.066;8.540;2023-11-19T15:37:56;10.50;99.90
21861;DHT22;11095;48.066;8.540;2023-11-19T15:40:22;10.50;99.90
21861;DHT22;11095;48.066;8.540;2023-11-19T15:42:48;10.40;99.90
21861;DHT22;11095;48.066;8.540;2023-11-19T15:45:13;10.30;99.90
21861;DHT22;11095;48.066;8.540;2023-11-19T15:47:39;10.20;99.90
21861;DHT22;11095;48.066;8.540;2023-11-19T15:50:05;10.20;99.90
21861;DHT22;11095;48.066;8.540;2023-11-19T15:52:32;10.10;99.90
21861;DHT22;11095;48.066;8.540;2023-11-19T15:54:58;10.00;99.90
21861;DHT22;11095;48.066;8.540;2023-11-19T15:57:24;9.90;99.90
21861;DHT22;11095;48.066;8.540;2023-11-19T15:59:49;9.90;99.90
21861;DHT22;11095;48.066;8.540;2023-11-19T16:02:16;9.80;99.90
21861;DHT22;11095;48.066;8.540;2023-11-19T16:04:42;9.70;99.90
21861;DHT22;11095;48.066;8.540;2023-11-19T16:07:13;9.70;99.90
21861;DHT22;11095;48.066;8.540;2023-11-19T16:09:38;9.60;99.90
21861;DHT22;11095;48.066;8.540;2023-11-19T16:12:04;9.60;99.90
21861;DHT22;11095;48.066;8.540;2023-11-19T16:14:30;9.50;99.90